Terminal Aerodrome Forecast
Issued by NWS

Home | Current Version | Previous Version | Text Only | Print | Product List | Glossary On
Versions: 1 2 3 4 5 6 7 8 9 10 11 12 13 14 15 16 17 18 19
129
FTUS43 KDVN 250410 AAA
TAFCID
TAF AMD
KCID 250410Z 2504/2524 34014G23KT 2SM -SN BR SCT012 OVC020
      TEMPO 2504/2507 3/4SM -SN BR BKN004 OVC008
     FM250700 32015G25KT 5SM -SN BR OVC009
     FM250900 32016G27KT 6SM BR VCSH OVC015
     FM251200 30014G22KT P6SM SKC=

USA.gov is the U.S. government's official web portal to all federal, state and local government web resources and services.